CheckWX is a tool to help pilots better visualize weather data.  It is not intended as a substitute for an official pre-flight weather briefing.

12:26:59 UTC

OEKM TAF
King Khaled Air Base Airport
Saudi Arabia
TAF OEKM 221100Z 2212/2318 21008G18KT 8000 FEW020 SCT080 TEMPO 2212/2218 SCT020 FEW025CB

Mar-22@
12:00 UTC

Mar-22 @ 12:00 UTC

Mar-23@
18:00 UTC

Mar-23 @ 18:00 UTC

TAF OEKM 221100Z 2212/2318 21008G18KT 8000 FEW020 SCT080
Wind
  • 210° at 8 KTS
  • {Gusting to 18 KTS
Cloud Levels
  • Few at 2,000' AGL
  • Scattered at 8,000' AGL

Mar-22@
12:00 UTC

Mar-22 @ 12:00 UTC

Mar-22@
18:00 UTC

Mar-22 @ 18:00 UTC

TEMPO 2212/2218 SCT020 FEW025CB

Temporary

Temporary Changes expected for less than half the time period

Cloud Levels
  • Scattered at 2,000' AGL
  • Few at 2,500' AGL